Time;durP1;ratioP1;P1;durP2;ratioP2;P2;SDS_P1;SDS_P2;PMS_P1;PMS_P2;Temp;Humidity;BMP_temperature;BMP_pressure;BME280_temperature;BME280_humidity;BME280_pressure;Samples;Min_cycle;Max_cycle;Signal;HPM_P1;HPM_P2
2022/03/12 00:00:38;;;;;;;11.43;2.72;;;;;;;0.07;35.08;100042.72;5030224;28;20064;-45
2022/03/12 00:03:04;;;;;;;8.38;2.13;;;;;;;0.16;35.09;100045.41;5028393;28;20091;-45
2022/03/12 00:05:32;;;;;;;7.43;2.30;;;;;;;0.11;35.24;100036.78;5033255;28;20045;-46
2022/03/12 00:08:00;;;;;;;4.30;2.25;;;;;;;0.26;35.17;100052.38;5024883;28;20045;-46
2022/03/12 00:10:32;;;;;;;5.70;2.60;;;;;;;0.29;35.66;100049.84;5029938;28;20048;-46
2022/03/12 00:12:59;;;;;;;6.47;2.45;;;;;;;0.22;36.20;100032.69;5034189;28;20536;-46
2022/03/12 00:15:24;;;;;;;4.50;2.30;;;;;;;0.42;36.70;100059.34;5032293;28;20045;-45
2022/03/12 00:17:51;;;;;;;5.68;2.45;;;;;;;0.48;36.59;100056.03;5031792;28;20037;-48
2022/03/12 00:20:18;;;;;;;6.70;2.40;;;;;;;0.54;37.18;100049.28;5027825;28;20060;-46
2022/03/12 00:22:48;;;;;;;5.65;2.40;;;;;;;0.50;37.29;100031.34;5014054;28;20083;-49
2022/03/12 00:25:14;;;;;;;6.57;2.47;;;;;;;0.58;37.59;100045.91;4996809;28;20053;-46
2022/03/12 00:27:42;;;;;;;6.38;2.50;;;;;;;0.57;38.08;100033.13;5024724;28;20059;-46
2022/03/12 00:30:17;;;;;;;4.05;2.17;;;;;;;0.68;38.66;100040.06;5033791;28;21013;-46
2022/03/12 00:32:42;;;;;;;5.10;2.13;;;;;;;0.69;38.98;100040.91;5008380;28;20041;-46
2022/03/12 00:35:11;;;;;;;8.35;2.35;;;;;;;0.71;38.98;100036.69;5019271;28;20045;-46
2022/03/12 00:37:38;;;;;;;5.18;2.10;;;;;;;0.64;39.35;100033.19;5033031;28;20171;-48
2022/03/12 00:40:04;;;;;;;8.15;2.20;;;;;;;0.68;39.33;100023.88;5013821;28;20049;-47
2022/03/12 00:42:30;;;;;;;4.50;2.42;;;;;;;0.71;39.85;100031.56;5015145;28;20131;-47
2022/03/12 00:44:56;;;;;;;6.00;2.10;;;;;;;0.71;39.63;100023.88;5032354;28;20547;-47
2022/03/12 00:47:22;;;;;;;5.72;2.53;;;;;;;0.70;39.61;100022.16;5030046;28;20076;-47
2022/03/12 00:49:49;;;;;;;7.80;2.10;;;;;;;0.69;40.38;100023.00;5033373;28;20045;-47
2022/03/12 00:52:14;;;;;;;5.03;2.22;;;;;;;0.64;40.63;100022.97;5015787;28;20040;-47
2022/03/12 00:54:40;;;;;;;6.10;2.13;;;;;;;0.65;40.79;100018.69;5027279;28;20049;-44
2022/03/12 00:57:06;;;;;;;4.95;2.20;;;;;;;0.70;41.16;100019.59;5032793;28;20049;-46
2022/03/12 00:59:32;;;;;;;4.80;1.92;;;;;;;0.73;41.15;100023.06;5018756;28;20541;-46
2022/03/12 01:01:58;;;;;;;7.70;2.28;;;;;;;0.76;41.42;100006.88;5015205;28;20045;-47
2022/03/12 01:04:24;;;;;;;4.15;2.13;;;;;;;0.81;41.27;100010.34;5012171;28;20033;-45
2022/03/12 01:06:50;;;;;;;5.70;2.00;;;;;;;0.83;41.94;100016.34;5020299;28;20044;-46
2022/03/12 01:09:16;;;;;;;5.07;2.25;;;;;;;0.71;41.69;99996.59;5033251;28;20390;-46
2022/03/12 01:11:42;;;;;;;4.53;2.20;;;;;;;0.88;41.92;100013.84;5033189;28;20057;-45
2022/03/12 01:14:08;;;;;;;8.90;2.40;;;;;;;0.89;41.61;100007.88;5030715;28;20428;-46
2022/03/12 01:16:34;;;;;;;6.43;2.30;;;;;;;0.75;41.95;99980.44;5031605;28;20539;-45
2022/03/12 01:19:00;;;;;;;4.63;2.03;;;;;;;0.76;42.01;99981.28;5021221;28;20194;-44
2022/03/12 01:21:28;;;;;;;5.45;2.00;;;;;;;0.95;42.03;100003.66;5025865;28;20468;-48
2022/03/12 01:23:54;;;;;;;5.03;2.15;;;;;;;0.97;42.39;100003.69;5013511;28;20509;-46
2022/03/12 01:26:21;;;;;;;8.35;2.45;;;;;;;0.95;42.54;100003.66;5020872;28;20056;-46
2022/03/12 01:28:47;;;;;;;5.05;2.70;;;;;;;0.94;42.79;99995.97;5032768;28;20029;-46
2022/03/12 01:31:13;;;;;;;5.28;2.40;;;;;;;0.93;42.68;99990.00;5030711;28;20451;-46
2022/03/12 01:33:39;;;;;;;5.65;2.55;;;;;;;0.97;42.65;99990.88;5028017;28;20045;-48
2022/03/12 01:36:05;;;;;;;4.90;2.47;;;;;;;0.94;42.39;99985.75;5012852;28;20042;-46
2022/03/12 01:38:35;;;;;;;5.13;2.30;;;;;;;0.93;42.49;99984.88;5012733;28;20042;-46
2022/03/12 01:41:02;;;;;;;5.85;2.17;;;;;;;0.94;42.96;99993.41;5011548;28;20041;-46
2022/03/12 01:43:32;;;;;;;5.50;2.08;;;;;;;0.94;42.80;99983.19;5021814;28;20044;-45
2022/03/12 01:46:00;;;;;;;;;;;;;;;0.95;43.25;99977.19;5017176;28;20037;-45
2022/03/12 01:48:27;;;;;;;6.90;2.42;;;;;;;0.92;43.30;99972.91;5019643;28;20015;-48
2022/03/12 01:50:52;;;;;;;5.07;2.38;;;;;;;0.94;43.34;99981.47;5028762;28;20037;-48
2022/03/12 01:53:18;;;;;;;6.47;2.15;;;;;;;0.97;42.98;99973.81;5021075;28;20191;-48
2022/03/12 01:55:43;;;;;;;6.18;2.33;;;;;;;0.99;43.16;99984.09;5031270;28;20535;-49
2022/03/12 01:58:12;;;;;;;5.00;2.40;;;;;;;0.99;43.07;99984.09;5032059;28;20042;-46
2022/03/12 02:00:43;;;;;;;6.88;2.13;;;;;;;1.01;43.38;99990.06;5031807;28;20544;-45
2022/03/12 02:03:10;;;;;;;4.90;2.10;;;;;;;1.02;42.80;99976.41;5030966;28;20179;-45
2022/03/12 02:05:37;;;;;;;5.50;2.55;;;;;;;0.99;43.22;99977.25;5030449;28;20037;-44
2022/03/12 02:08:04;;;;;;;8.13;3.00;;;;;;;1.08;43.37;99982.44;5031458;28;20505;-45
2022/03/12 02:10:29;;;;;;;7.60;2.63;;;;;;;1.11;43.17;99989.28;5030729;28;20045;-44
2022/03/12 02:12:55;;;;;;;6.78;2.75;;;;;;;1.12;43.56;99979.06;5031718;28;20041;-47
2022/03/12 02:15:22;;;;;;;5.82;2.35;;;;;;;1.16;43.20;99982.50;5031618;28;20037;-46
2022/03/12 02:17:49;;;;;;;12.82;2.63;;;;;;;1.16;43.33;99980.81;5030985;28;20041;-46
2022/03/12 02:20:17;;;;;;;6.32;2.53;;;;;;;1.18;43.25;99975.69;5031334;28;20523;-47
2022/03/12 02:22:45;;;;;;;5.90;2.53;;;;;;;1.16;43.23;99970.56;5013647;28;20537;-47
2022/03/12 02:25:12;;;;;;;7.25;2.42;;;;;;;1.16;43.63;99977.38;5031487;28;20071;-46
2022/03/12 02:27:38;;;;;;;6.18;2.60;;;;;;;1.21;43.76;99965.47;5031264;28;20389;-48
2022/03/12 02:30:08;;;;;;;7.28;2.55;;;;;;;1.22;43.12;99967.19;5030739;28;20041;-47
2022/03/12 02:32:37;;;;;;;10.23;2.90;;;;;;;1.20;43.58;99963.78;5029208;28;20159;-45
2022/03/12 02:35:07;;;;;;;7.53;2.50;;;;;;;1.20;43.79;99968.91;5028393;28;20124;-46
2022/03/12 02:37:36;;;;;;;5.10;2.42;;;;;;;1.24;43.53;99970.63;5031649;28;20128;-48
2022/03/12 02:40:07;;;;;;;7.97;3.17;;;;;;;1.25;43.31;99968.09;5030927;28;20455;-43
2022/03/12 02:42:35;;;;;;;7.63;2.42;;;;;;;1.22;43.76;99962.06;5031111;28;20049;-48
2022/03/12 02:45:06;;;;;;;7.35;2.33;;;;;;;1.17;43.84;99961.19;5030913;28;20033;-46
2022/03/12 02:47:33;;;;;;;7.30;2.78;;;;;;;1.17;43.69;99962.03;5029719;28;20064;-46
2022/03/12 02:50:06;;;;;;;7.90;3.05;;;;;;;1.18;43.88;99958.63;5030608;28;20555;-49
2022/03/12 02:52:32;;;;;;;8.35;2.65;;;;;;;1.21;43.77;99952.66;5031146;28;20102;-46
2022/03/12 02:55:00;;;;;;;7.53;2.80;;;;;;;1.19;44.03;99960.34;5017029;28;20037;-48
2022/03/12 02:57:27;;;;;;;7.78;3.20;;;;;;;1.18;43.71;99957.78;5030442;28;20072;-49
2022/03/12 02:59:55;;;;;;;7.43;2.83;;;;;;;1.18;44.17;99950.94;5029453;28;20042;-48
2022/03/12 03:02:25;;;;;;;6.53;2.75;;;;;;;1.20;43.73;99945.84;5044883;28;20156;-45
2022/03/12 03:04:51;;;;;;;5.65;2.88;;;;;;;1.20;43.92;99943.28;5029488;28;20092;-46
2022/03/12 03:07:18;;;;;;;4.40;2.42;;;;;;;1.20;44.30;99936.44;5030129;28;20140;-47
2022/03/12 03:09:44;;;;;;;4.75;2.53;;;;;;;1.24;43.96;99939.91;5030943;28;20120;-46
2022/03/12 03:12:13;;;;;;;10.50;3.00;;;;;;;1.23;44.26;99926.25;5031035;28;20064;-51
2022/03/12 03:14:43;;;;;;;5.82;2.70;;;;;;;1.25;44.29;99933.94;5030319;28;20046;-50
2022/03/12 03:17:11;;;;;;;7.03;2.80;;;;;;;1.25;44.51;99926.25;5030090;28;20041;-48
2022/03/12 03:19:37;;;;;;;6.38;2.88;;;;;;;1.21;44.79;99930.47;5030190;28;20045;-46
2022/03/12 03:22:03;;;;;;;4.07;2.28;;;;;;;1.19;44.72;99921.94;5029511;28;20052;-45
2022/03/12 03:24:29;;;;;;;5.43;2.63;;;;;;;1.21;44.75;99922.78;5031056;28;20041;-47
2022/03/12 03:26:57;;;;;;;7.15;2.40;;;;;;;1.20;44.95;99933.06;5029943;28;20429;-47
2022/03/12 03:29:25;;;;;;;6.53;3.10;;;;;;;1.19;45.17;99933.88;5030749;28;20037;-46
2022/03/12 03:31:51;;;;;;;6.05;2.50;;;;;;;1.20;45.13;99928.75;5029318;28;20049;-46
2022/03/12 03:34:17;;;;;;;9.23;2.75;;;;;;;1.23;44.97;99931.34;5028070;28;20049;-48
2022/03/12 03:36:43;;;;;;;8.80;2.40;;;;;;;1.11;45.35;99925.28;5013125;28;20436;-47
2022/03/12 03:39:09;;;;;;;7.45;2.95;;;;;;;1.21;45.07;99939.84;5033710;28;20080;-46
2022/03/12 03:41:35;;;;;;;7.28;2.33;;;;;;;1.20;45.36;99941.56;5032989;28;20069;-47
2022/03/12 03:44:02;;;;;;;5.55;2.63;;;;;;;1.19;45.51;99942.44;5032652;28;20041;-47
2022/03/12 03:46:28;;;;;;;6.55;2.58;;;;;;;1.05;45.39;99920.97;5034489;28;20452;-49
2022/03/12 03:48:54;;;;;;;5.32;2.50;;;;;;;1.24;45.48;99951.00;5033375;28;20041;-47
2022/03/12 03:51:20;;;;;;;7.03;2.47;;;;;;;1.26;45.40;99971.47;5034032;28;20045;-49
2022/03/12 03:53:46;;;;;;;6.22;2.65;;;;;;;1.26;45.98;99977.47;5033443;28;20041;-44
2022/03/12 03:56:12;;;;;;;7.18;2.53;;;;;;;1.25;45.80;99969.78;5034331;28;20132;-47
2022/03/12 03:58:38;;;;;;;5.20;2.47;;;;;;;1.20;45.90;99956.09;5034003;28;20054;-47
2022/03/12 04:01:12;;;;;;;4.50;2.60;;;;;;;1.32;45.87;99960.44;5033452;28;20052;-45
2022/03/12 04:03:42;;;;;;;;;;;;;;;1.33;45.67;99957.88;5033369;28;20045;-47
2022/03/12 04:06:08;;;;;;;7.93;2.50;;;;;;;1.35;45.88;99955.34;5034386;28;19924;-48
2022/03/12 04:08:35;;;;;;;5.38;2.50;;;;;;;1.31;46.20;99953.63;5034156;28;20037;-45
2022/03/12 04:11:04;;;;;;;6.53;2.50;;;;;;;1.32;46.17;99960.44;5033606;28;20313;-47
2022/03/12 04:13:30;;;;;;;4.88;2.42;;;;;;;1.32;46.12;99961.28;5033675;28;20045;-48
2022/03/12 04:15:58;;;;;;;5.00;2.78;;;;;;;1.29;46.15;99945.91;5016580;28;20072;-46
2022/03/12 04:18:27;;;;;;;7.05;2.42;;;;;;;1.39;45.85;99962.19;5033333;28;20775;-47
2022/03/12 04:20:53;;;;;;;6.47;2.72;;;;;;;1.43;46.12;99976.72;5032855;28;20493;-46
2022/03/12 04:23:24;;;;;;;6.22;2.85;;;;;;;1.44;46.30;99984.44;5033724;28;20051;-48
2022/03/12 04:25:52;;;;;;;5.50;2.53;;;;;;;1.46;46.09;99999.81;5033156;28;20041;-46
2022/03/12 04:28:18;;;;;;;6.22;2.85;;;;;;;1.47;46.45;99983.59;5032288;28;20421;-44
2022/03/12 04:30:44;;;;;;;6.72;2.72;;;;;;;1.50;46.47;99975.94;5048871;28;20041;-47
2022/03/12 04:33:11;;;;;;;7.20;2.97;;;;;;;1.53;46.44;99970.81;5031627;28;20091;-46
2022/03/12 04:35:42;;;;;;;7.80;2.70;;;;;;;1.55;46.08;99980.25;5033613;28;20087;-45
2022/03/12 04:38:12;;;;;;;8.40;2.83;;;;;;;1.54;46.20;99982.78;5032975;28;20132;-45
2022/03/12 04:40:43;;;;;;;7.80;2.75;;;;;;;1.53;46.18;99973.38;5033609;28;20063;-45
2022/03/12 04:43:09;;;;;;;6.82;3.20;;;;;;;1.43;46.62;99971.59;5033610;28;20091;-46
2022/03/12 04:45:36;;;;;;;11.02;3.78;;;;;;;1.53;46.55;99984.50;5031960;28;20041;-55
2022/03/12 04:48:02;;;;;;;7.57;3.17;;;;;;;1.56;46.20;99991.34;5031666;28;20072;-49
2022/03/12 04:50:29;;;;;;;6.43;3.08;;;;;;;1.56;46.83;99978.53;5032873;28;20106;-46
2022/03/12 04:52:57;;;;;;;6.25;3.30;;;;;;;1.57;46.83;99978.53;5033392;28;20045;-47
2022/03/12 04:55:25;;;;;;;10.07;2.95;;;;;;;1.40;46.90;99949.41;5032182;28;20044;-45
2022/03/12 04:57:52;;;;;;;9.00;3.03;;;;;;;1.63;46.69;99980.28;5032883;28;20061;-45
2022/03/12 05:00:26;;;;;;;6.40;2.95;;;;;;;1.65;46.82;99968.34;5015386;28;20498;-46
2022/03/12 05:03:08;;;;;;;7.47;2.80;;;;;;;1.75;46.85;99976.94;5032934;28;20055;-47
2022/03/12 05:05:40;;;;;;;6.63;3.17;;;;;;;1.77;47.33;99981.25;5032133;28;20579;-47
2022/03/12 05:08:16;;;;;;;7.32;3.13;;;;;;;1.78;46.90;99982.94;5030101;28;20037;-47
2022/03/12 05:10:43;;;;;;;6.60;2.95;;;;;;;1.81;46.93;99982.09;5033056;28;20140;-48
2022/03/12 05:13:12;;;;;;;5.78;2.90;;;;;;;1.86;47.13;99982.97;5032602;28;20041;-48
2022/03/12 05:15:38;;;;;;;10.20;3.03;;;;;;;1.92;47.22;99985.59;5030520;28;20421;-48
2022/03/12 05:18:11;;;;;;;6.95;3.13;;;;;;;1.95;47.08;99973.63;5012425;28;20513;-45
2022/03/12 05:20:39;;;;;;;9.63;3.95;;;;;;;2.02;46.99;99974.53;5031994;28;20049;-46
2022/03/12 05:23:07;;;;;;;15.80;5.90;;;;;;;2.06;46.75;99966.84;5032291;28;20527;-47
2022/03/12 05:25:34;;;;;;;9.38;4.47;;;;;;;2.08;47.06;99975.41;5031028;28;20049;-49
2022/03/12 05:28:00;;;;;;;9.40;3.90;;;;;;;2.12;46.80;99973.72;5031970;28;20045;-49
2022/03/12 05:30:27;;;;;;;11.55;3.63;;;;;;;2.18;47.13;99980.56;5024923;28;20409;-49
2022/03/12 05:32:53;;;;;;;11.82;3.03;;;;;;;2.20;47.00;99984.00;5031048;28;20040;-47
2022/03/12 05:35:20;;;;;;;8.73;3.08;;;;;;;2.22;47.35;99985.72;5031355;28;20508;-48
2022/03/12 05:37:47;;;;;;;8.32;3.10;;;;;;;2.24;46.98;99975.47;5026465;28;20044;-47
2022/03/12 05:40:18;;;;;;;8.07;3.10;;;;;;;2.31;47.02;99972.06;5026734;28;20524;-46
2022/03/12 05:42:45;;;;;;;8.35;3.22;;;;;;;2.39;46.48;99970.41;5030248;28;20060;-46
2022/03/12 05:45:12;;;;;;;6.25;2.88;;;;;;;2.43;46.54;99969.53;5029481;28;20128;-46
2022/03/12 05:47:42;;;;;;;4.80;2.80;;;;;;;2.43;46.30;99969.53;5028774;28;20125;-48
2022/03/12 05:50:13;;;;;;;4.82;2.65;;;;;;;2.39;46.32;99950.72;5030572;28;20034;-47
2022/03/12 05:52:39;;;;;;;7.22;3.00;;;;;;;2.54;46.36;99970.44;5031282;28;20041;-46
2022/03/12 05:55:08;;;;;;;5.32;2.80;;;;;;;2.62;46.26;99968.72;5010128;28;20088;-48
2022/03/12 05:57:33;;;;;;;7.40;3.50;;;;;;;2.60;46.89;99962.75;5028642;28;20593;-48
2022/03/12 06:00:03;;;;;;;7.10;3.92;;;;;;;2.63;47.04;99970.44;5029813;28;20131;-47
2022/03/12 06:02:44;;;;;;;8.70;3.33;;;;;;;2.48;47.45;99948.19;5030700;28;20048;-46
2022/03/12 06:05:12;;;;;;;6.47;3.88;;;;;;;2.61;47.74;99979.00;5029836;28;20081;-45
2022/03/12 06:07:43;;;;;;;9.27;4.35;;;;;;;2.62;48.06;99983.31;5031423;28;20072;-44
2022/03/12 06:10:09;;;;;;;7.53;3.20;;;;;;;2.40;48.77;99942.19;5031045;28;20088;-48
2022/03/12 06:12:35;;;;;;;7.85;3.30;;;;;;;2.59;49.32;99984.13;5031948;28;20505;-46
2022/03/12 06:15:05;;;;;;;10.70;3.70;;;;;;;2.63;49.23;99990.13;4996841;28;20037;-46
2022/03/12 06:17:31;;;;;;;6.38;3.50;;;;;;;2.60;49.52;99982.44;5030916;28;20046;-48
2022/03/12 06:19:57;;;;;;;7.43;3.63;;;;;;;2.54;49.63;99962.72;5031604;28;20040;-47
2022/03/12 06:22:23;;;;;;;8.13;3.95;;;;;;;2.62;49.68;99968.72;5031288;28;20045;-47
2022/03/12 06:24:49;;;;;;;7.18;3.90;;;;;;;2.62;50.15;99971.28;5029816;28;20068;-48
2022/03/12 06:27:17;;;;;;;11.10;5.43;;;;;;;2.67;49.93;99971.34;5031507;28;20044;-48
2022/03/12 06:29:43;;;;;;;11.25;4.43;;;;;;;2.68;50.14;99966.19;5035887;28;20116;-48
2022/03/12 06:32:10;;;;;;;7.72;3.85;;;;;;;2.64;50.29;99979.00;5030936;28;20447;-47
2022/03/12 06:34:35;;;;;;;9.93;4.53;;;;;;;2.62;50.10;99960.19;5030882;28;20516;-46
2022/03/12 06:37:02;;;;;;;8.35;4.00;;;;;;;2.59;50.16;99962.75;5046776;28;20042;-47
2022/03/12 06:39:28;;;;;;;8.10;3.88;;;;;;;2.70;50.49;99964.47;5030924;28;20467;-46
2022/03/12 06:41:55;;;;;;;10.75;5.00;;;;;;;2.76;50.34;99969.63;5030878;28;20037;-48
2022/03/12 06:44:21;;;;;;;11.85;5.35;;;;;;;2.78;50.23;99960.19;5030976;28;20136;-46
2022/03/12 06:46:48;;;;;;;15.98;5.30;;;;;;;2.79;49.89;99973.91;5030561;28;20543;-49
2022/03/12 06:49:14;;;;;;;8.07;3.42;;;;;;;2.76;49.81;99969.63;5030496;28;20040;-50
2022/03/12 06:51:40;;;;;;;11.95;3.58;;;;;;;2.63;49.90;99957.63;5030270;28;20041;-48
2022/03/12 06:54:06;;;;;;;13.25;3.80;;;;;;;2.71;49.93;99986.75;5021123;28;20452;-49
2022/03/12 06:56:34;;;;;;;10.82;4.88;;;;;;;2.68;50.03;99981.59;4994285;28;20049;-48
2022/03/12 06:59:00;;;;;;;12.25;4.13;;;;;;;2.65;50.17;99989.28;5026540;28;20572;-49
2022/03/12 07:01:26;;;;;;;5.35;3.03;;;;;;;2.68;49.87;99988.41;5011383;28;20046;-47
2022/03/12 07:03:54;;;;;;;9.02;4.50;;;;;;;2.67;50.06;99987.56;5021946;28;20041;-50
2022/03/12 07:06:20;;;;;;;11.30;4.10;;;;;;;2.68;50.07;99991.00;5030108;28;20578;-43
2022/03/12 07:08:46;;;;;;;12.43;4.32;;;;;;;2.74;50.16;99991.88;5012831;28;20033;-42
2022/03/12 07:11:13;;;;;;;9.10;4.25;;;;;;;2.84;49.67;99993.59;5026576;28;20049;-42
2022/03/12 07:13:39;;;;;;;10.60;3.90;;;;;;;2.84;49.62;99985.03;5025720;28;20088;-43
2022/03/12 07:16:05;;;;;;;8.60;3.80;;;;;;;2.95;49.74;100003.88;5028018;28;20091;-42
2022/03/12 07:18:30;;;;;;;10.90;4.05;;;;;;;2.95;49.62;99998.75;5028674;28;20428;-43
2022/03/12 07:20:56;;;;;;;8.07;4.32;;;;;;;2.88;49.65;99992.75;5011945;28;20397;-42
2022/03/12 07:23:22;;;;;;;8.70;3.72;;;;;;;2.83;49.84;99998.72;5027297;28;20069;-42
2022/03/12 07:25:48;;;;;;;6.80;3.47;;;;;;;2.77;49.49;99978.19;5006972;28;20048;-42
2022/03/12 07:28:17;;;;;;;6.07;3.33;;;;;;;2.82;49.57;99990.19;5029419;28;20037;-41
2022/03/12 07:30:43;;;;;;;9.23;4.00;;;;;;;2.79;49.34;99997.00;5021977;28;20505;-41
2022/03/12 07:33:09;;;;;;;9.27;3.67;;;;;;;2.75;49.26;99996.16;5029491;28;20132;-43
2022/03/12 07:35:36;;;;;;;7.25;4.43;;;;;;;2.60;49.37;99972.16;5028115;28;20124;-40
2022/03/12 07:38:03;;;;;;;8.10;3.78;;;;;;;2.65;49.61;99986.72;5029314;28;20038;-41
2022/03/12 07:40:28;;;;;;;8.63;4.55;;;;;;;2.65;49.44;99985.84;5033623;28;20065;-43
2022/03/12 07:42:55;;;;;;;7.90;4.15;;;;;;;2.73;49.45;99991.84;5012890;28;20065;-41
2022/03/12 07:45:21;;;;;;;9.00;4.15;;;;;;;2.71;49.00;99978.19;5029354;28;20132;-42
2022/03/12 07:47:52;;;;;;;8.15;4.57;;;;;;;2.76;48.93;99986.75;5026096;28;20087;-41
2022/03/12 07:50:18;;;;;;;8.63;3.92;;;;;;;2.74;49.13;99989.28;5031577;28;20060;-43
2022/03/12 07:52:44;;;;;;;9.18;3.50;;;;;;;2.76;49.07;99999.59;5012463;28;20077;-41
2022/03/12 07:55:11;;;;;;;9.90;4.30;;;;;;;2.66;49.41;99996.13;5026290;28;20045;-43
2022/03/12 07:57:40;;;;;;;11.15;4.38;;;;;;;2.65;49.04;99996.13;5030357;28;20575;-40
2022/03/12 08:00:07;;;;;;;10.05;3.90;;;;;;;2.66;48.98;99985.88;5030250;28;20098;-43
2022/03/12 08:02:42;;;;;;;9.68;4.28;;;;;;;2.78;48.75;99993.56;5029036;28;20049;-41
2022/03/12 08:05:07;;;;;;;7.93;4.35;;;;;;;2.74;48.49;99955.94;5027342;28;20171;-42
2022/03/12 08:07:33;;;;;;;9.55;4.90;;;;;;;2.99;48.35;99993.63;5027967;28;20068;-41
2022/03/12 08:09:59;;;;;;;8.18;4.03;;;;;;;3.08;48.43;99999.63;5029617;28;20061;-41
2022/03/12 08:12:30;;;;;;;7.30;3.47;;;;;;;3.15;48.13;99998.75;5029875;28;20041;-41
2022/03/12 08:14:58;;;;;;;10.20;4.65;;;;;;;3.13;47.83;99988.50;5028336;28;20049;-41
2022/03/12 08:17:24;;;;;;;10.52;4.78;;;;;;;3.10;47.51;99996.19;5025199;28;20037;-41
2022/03/12 08:19:50;;;;;;;6.90;3.53;;;;;;;3.12;47.82;100009.91;5027023;28;20080;-43
2022/03/12 08:22:16;;;;;;;8.60;4.15;;;;;;;3.08;47.93;100015.03;5028060;28;20069;-40
2022/03/12 08:24:42;;;;;;;7.63;3.42;;;;;;;3.02;47.97;100007.31;4997980;28;20492;-41
2022/03/12 08:27:09;;;;;;;8.20;3.55;;;;;;;3.01;48.15;100000.47;5016400;28;20049;-40
2022/03/12 08:29:35;;;;;;;6.72;3.55;;;;;;;3.04;47.59;100013.31;5032074;28;20033;-42
2022/03/12 08:32:01;;;;;;;8.77;3.85;;;;;;;3.02;47.79;100015.03;5031309;28;20128;-42
2022/03/12 08:34:27;;;;;;;7.70;3.72;;;;;;;2.91;47.91;100003.03;5032526;28;20045;-40
2022/03/12 08:36:53;;;;;;;8.80;4.22;;;;;;;2.85;47.84;99997.03;5032835;28;20038;-41
2022/03/12 08:39:18;;;;;;;7.28;3.75;;;;;;;2.89;48.29;100015.00;5032051;28;20539;-39
2022/03/12 08:41:45;;;;;;;7.25;3.63;;;;;;;2.85;48.22;100017.56;5032957;28;20531;-41
2022/03/12 08:44:11;;;;;;;7.22;3.75;;;;;;;2.80;48.68;100017.56;5033646;28;20041;-42
2022/03/12 08:46:42;;;;;;;7.68;3.58;;;;;;;2.83;48.69;100006.41;5031435;28;20045;-41
2022/03/12 08:49:27;;;;;;;9.35;3.85;;;;;;;2.73;48.35;99997.84;5032416;28;20049;-41
2022/03/12 08:51:53;;;;;;;19.40;5.55;;;;;;;2.75;48.67;100016.69;5032166;28;20091;-41
2022/03/12 08:54:19;;;;;;;4.72;3.33;;;;;;;2.78;49.01;100010.69;5030157;28;20053;-45
2022/03/12 08:56:45;;;;;;;23.67;4.93;;;;;;;2.88;48.58;100020.13;5031316;28;20049;-46
2022/03/12 08:59:12;;;;;;;8.80;3.17;;;;;;;2.87;48.50;100013.31;5032050;28;20053;-46
2022/03/12 09:01:38;;;;;;;8.27;3.80;;;;;;;2.98;48.36;100016.75;5035097;28;20114;-45
2022/03/12 09:04:05;;;;;;;5.63;3.53;;;;;;;3.09;48.26;100019.34;5031682;28;20760;-44
2022/03/12 09:06:32;;;;;;;6.15;3.55;;;;;;;3.13;48.21;100019.34;5032306;28;20120;-44
2022/03/12 09:08:58;;;;;;;7.97;3.67;;;;;;;3.16;48.18;100021.88;5032483;28;20074;-44
2022/03/12 09:11:25;;;;;;;7.97;3.67;;;;;;;3.09;47.93;99999.59;5032387;28;20037;-45
2022/03/12 09:13:50;;;;;;;5.50;3.28;;;;;;;3.21;47.89;100009.03;5028963;28;20093;-44
2022/03/12 09:16:16;;;;;;;7.43;3.72;;;;;;;3.32;47.68;100022.75;5026294;28;20125;-44
2022/03/12 09:18:44;;;;;;;5.47;3.30;;;;;;;3.44;47.43;100021.91;5029207;28;20056;-48
2022/03/12 09:21:10;;;;;;;9.15;3.50;;;;;;;3.56;47.19;100021.91;5032527;28;20037;-48
2022/03/12 09:23:36;;;;;;;13.38;6.47;;;;;;;3.61;46.95;100026.16;5031370;28;20328;-47
2022/03/12 09:26:02;;;;;;;6.00;3.22;;;;;;;3.60;47.50;100018.47;5030613;28;20041;-46
2022/03/12 09:28:28;;;;;;;8.50;3.90;;;;;;;3.59;47.62;100022.75;5031494;28;20041;-54
2022/03/12 09:30:55;;;;;;;8.77;3.70;;;;;;;3.59;47.29;100025.31;5032772;28;20124;-50
2022/03/12 09:33:22;;;;;;;9.18;3.95;;;;;;;3.51;47.44;100027.03;5032287;28;20041;-52
2022/03/12 09:35:49;;;;;;;7.32;3.85;;;;;;;3.52;47.58;100030.47;5031798;28;20533;-47
2022/03/12 09:38:15;;;;;;;8.27;3.90;;;;;;;3.55;47.91;100035.63;5032340;28;20072;-52
2022/03/12 09:40:42;;;;;;;8.77;4.03;;;;;;;3.38;47.53;100017.63;5030138;28;20048;-49
2022/03/12 09:43:08;;;;;;;7.65;4.00;;;;;;;3.47;47.61;100035.59;5033596;28;20505;-46
2022/03/12 09:45:36;;;;;;;9.95;4.30;;;;;;;3.38;47.64;100022.75;5042203;28;20092;-48
2022/03/12 09:48:02;;;;;;;8.25;4.13;;;;;;;3.54;47.88;100042.47;5031949;28;20081;-45
2022/03/12 09:50:28;;;;;;;9.38;4.00;;;;;;;3.62;47.70;100037.31;5039749;28;20069;-47
2022/03/12 09:52:56;;;;;;;8.13;3.60;;;;;;;3.66;47.92;100042.47;5035688;28;20056;-45
2022/03/12 09:55:22;;;;;;;9.13;4.10;;;;;;;3.70;47.50;100039.03;5043615;28;20051;-46
2022/03/12 09:57:49;;;;;;;9.18;4.00;;;;;;;3.76;47.45;100043.31;5035472;28;20061;-48
2022/03/12 10:00:16;;;;;;;13.10;4.43;;;;;;;3.79;47.21;100039.00;5030350;28;20531;-46
2022/03/12 10:02:42;;;;;;;7.38;3.63;;;;;;;3.72;47.20;100024.44;5018411;28;20041;-49
2022/03/12 10:05:13;;;;;;;9.60;3.85;;;;;;;3.82;47.00;100031.28;5030487;28;20127;-51
2022/03/12 10:07:41;;;;;;;8.57;4.18;;;;;;;3.87;46.81;100021.00;5030391;28;20144;-48
2022/03/12 10:10:12;;;;;;;6.13;3.80;;;;;;;3.98;46.99;100034.69;5031876;28;20037;-47
2022/03/12 10:12:38;;;;;;;12.50;4.47;;;;;;;4.05;46.79;100030.38;5031705;28;20052;-46
2022/03/12 10:15:04;;;;;;;7.97;3.55;;;;;;;4.09;46.65;100037.22;5028674;28;20045;-48
2022/03/12 10:17:31;;;;;;;10.23;4.10;;;;;;;4.16;46.67;100036.34;5031292;28;20412;-46
2022/03/12 10:19:57;;;;;;;8.77;3.80;;;;;;;4.12;46.43;100019.22;5032296;28;20057;-46
2022/03/12 10:22:23;;;;;;;9.63;4.35;;;;;;;4.28;46.30;100036.31;5028744;28;20046;-50
2022/03/12 10:24:49;;;;;;;7.78;3.45;;;;;;;4.35;46.07;100032.00;5038368;28;20063;-46
2022/03/12 10:27:15;;;;;;;6.35;3.30;;;;;;;4.38;45.93;100043.16;5027165;28;20501;-46
2022/03/12 10:29:42;;;;;;;8.57;3.35;;;;;;;4.43;45.96;100036.28;5029123;28;20080;-49
2022/03/12 10:32:23;;;;;;;12.70;3.80;;;;;;;4.49;45.77;100033.69;5030728;28;20124;-50
2022/03/12 10:34:52;;;;;;;6.57;3.53;;;;;;;4.56;45.62;100026.75;5025566;28;20119;-45
2022/03/12 10:37:20;;;;;;;6.53;3.47;;;;;;;4.57;45.72;100031.91;5025468;28;20076;-48
2022/03/12 10:39:46;;;;;;;8.25;3.33;;;;;;;4.61;45.42;100030.16;5020037;28;20124;-47
2022/03/12 10:42:12;;;;;;;12.05;3.53;;;;;;;4.58;45.37;100012.16;5024881;28;20045;-48
2022/03/12 10:44:40;;;;;;;6.53;3.70;;;;;;;4.82;44.79;100036.94;5029074;28;20068;-48
2022/03/12 10:47:20;;;;;;;11.15;4.00;;;;;;;4.91;45.15;100039.47;5026254;28;20129;-47
2022/03/12 10:50:04;;;;;;;6.63;3.03;;;;;;;4.93;44.70;100036.00;5017146;28;20038;-47
2022/03/12 10:52:32;;;;;;;8.75;3.42;;;;;;;4.96;44.82;100035.16;5025966;28;20041;-47
2022/03/12 10:54:58;;;;;;;6.50;3.35;;;;;;;4.98;44.42;100031.69;5025538;28;20041;-51
2022/03/12 10:57:24;;;;;;;6.28;3.20;;;;;;;4.98;44.78;100043.69;5029484;28;20092;-49
2022/03/12 10:59:54;;;;;;;6.57;3.58;;;;;;;5.04;44.39;100039.38;5012976;28;20077;-48
2022/03/12 11:02:20;;;;;;;6.47;3.30;;;;;;;5.08;44.27;100037.63;5029241;28;20055;-51
2022/03/12 11:04:46;;;;;;;8.27;3.28;;;;;;;5.15;44.78;100048.75;5030214;28;20091;-48
2022/03/12 11:07:26;;;;;;;9.10;3.55;;;;;;;5.20;44.81;100045.28;5013209;28;20513;-51
2022/03/12 11:09:53;;;;;;;6.80;3.15;;;;;;;5.24;44.34;100052.13;5029810;28;20578;-53
2022/03/12 11:12:31;;;;;;;8.45;4.60;;;;;;;5.24;44.52;100052.13;5028866;28;20509;-42
2022/03/12 11:15:06;;;;;;;6.45;3.60;;;;;;;5.20;44.27;100050.44;5029533;28;20099;-41
2022/03/12 11:17:44;;;;;;;8.65;3.63;;;;;;;5.02;44.52;100022.22;5029558;28;20037;-41
2022/03/12 11:20:22;;;;;;;6.07;3.10;;;;;;;5.16;44.39;100037.59;5060826;28;20049;-40
2022/03/12 11:22:50;;;;;;;8.77;3.40;;;;;;;5.25;44.98;100058.13;5029949;28;20128;-41
2022/03/12 11:25:20;;;;;;;8.63;3.80;;;;;;;5.26;44.37;100057.28;5029443;28;20108;-40
2022/03/12 11:27:50;;;;;;;5.28;3.10;;;;;;;5.21;44.71;100064.19;5029821;28;20064;-39
2022/03/12 11:30:22;;;;;;;7.55;3.40;;;;;;;5.02;44.69;100048.81;5030349;28;20124;-40
2022/03/12 11:33:03;;;;;;;6.72;3.30;;;;;;;5.02;44.68;100058.31;5029275;28;20528;-39
2022/03/12 11:35:35;;;;;;;5.53;3.58;;;;;;;4.98;44.63;100056.59;5062781;28;20091;-40
2022/03/12 11:38:11;;;;;;;8.48;3.88;;;;;;;4.88;44.94;100042.03;5029660;28;20038;-40
2022/03/12 11:40:42;;;;;;;8.68;3.80;;;;;;;4.93;44.92;100066.06;5030215;28;20136;-43